Time;durP1;ratioP1;P1;durP2;ratioP2;P2;SDS_P1;SDS_P2;PMS_P1;PMS_P2;Temp;Humidity;BMP_temperature;BMP_pressure;BME280_temperature;BME280_humidity;BME280_pressure;Samples;Min_cycle;Max_cycle;Signal;HPM_P1;HPM_P2
2022/01/31 00:00:57;;;;;;;17.35;6.10;;;;;;;;;;5038533;28;20464;-68
2022/01/31 00:03:24;;;;;;;16.27;5.50;;;;;;;;;;5030485;28;20045;-69
2022/01/31 00:05:50;;;;;;;16.17;5.60;;;;;;;;;;5039573;28;20463;-69
2022/01/31 00:08:22;;;;;;;20.23;5.13;;;;;;;;;;5034098;28;20451;-69
2022/01/31 00:10:49;;;;;;;16.88;5.07;;;;;;;;;;5025874;28;20453;-69
2022/01/31 00:13:22;;;;;;;14.95;5.20;;;;;;;;;;5039520;28;20057;-69
2022/01/31 00:15:54;;;;;;;30.42;6.40;;;;;;;;;;5031050;28;20045;-68
2022/01/31 00:18:21;;;;;;;23.02;6.32;;;;;;;;;;5040748;28;20059;-68
2022/01/31 00:20:47;;;;;;;19.30;6.47;;;;;;;;;;5031593;28;20041;-69
2022/01/31 00:23:14;;;;;;;18.40;6.00;;;;;;;;;;5032923;28;20049;-68
2022/01/31 00:25:40;;;;;;;19.92;4.82;;;;;;;;;;5031178;28;20061;-69
2022/01/31 00:28:06;;;;;;;20.42;6.30;;;;;;;;;;5036431;28;20556;-69
2022/01/31 00:30:35;;;;;;;17.05;6.07;;;;;;;;;;5038122;28;20061;-69
2022/01/31 00:33:01;;;;;;;19.42;5.70;;;;;;;;;;5028725;28;20126;-69
2022/01/31 00:35:27;;;;;;;13.30;5.43;;;;;;;;;;5029196;28;20041;-69
2022/01/31 00:37:54;;;;;;;20.23;5.90;;;;;;;;;;5013276;28;20422;-69
2022/01/31 00:40:20;;;;;;;21.55;6.30;;;;;;;;;;5027024;28;20962;-69
2022/01/31 00:42:46;;;;;;;22.17;5.95;;;;;;;;;;5027818;28;20498;-69
2022/01/31 00:45:17;;;;;;;17.05;4.93;;;;;;;;;;5011337;28;20057;-69
2022/01/31 00:47:47;;;;;;;22.80;6.38;;;;;;;;;;5029295;28;20049;-68
2022/01/31 00:50:16;;;;;;;15.10;5.03;;;;;;;;;;5011411;28;20124;-69
2022/01/31 00:52:43;;;;;;;23.08;7.03;;;;;;;;;;5041719;28;20285;-68
2022/01/31 00:55:10;;;;;;;25.75;5.85;;;;;;;;;;5035616;28;20048;-68
2022/01/31 00:57:36;;;;;;;19.73;6.38;;;;;;;;;;5043156;28;20075;-69
2022/01/31 01:00:04;;;;;;;19.13;6.18;;;;;;;;;;5034839;28;20063;-69
2022/01/31 01:02:30;;;;;;;20.02;5.45;;;;;;;;;;5038435;28;20064;-68
2022/01/31 01:04:56;;;;;;;23.52;6.40;;;;;;;;;;5037994;28;20060;-68
2022/01/31 01:07:23;;;;;;;17.98;5.50;;;;;;;;;;5034195;28;20045;-68
2022/01/31 01:09:49;;;;;;;28.05;7.25;;;;;;;;;;5030120;28;20052;-68
2022/01/31 01:12:17;;;;;;;26.42;6.63;;;;;;;;;;5032979;28;20045;-69
2022/01/31 01:14:45;;;;;;;20.50;6.43;;;;;;;;;;5043144;28;20049;-67
2022/01/31 01:17:11;;;;;;;23.23;6.85;;;;;;;;;;5037696;28;20300;-67
2022/01/31 01:19:37;;;;;;;24.85;7.00;;;;;;;;;;5041822;28;20490;-67
2022/01/31 01:22:04;;;;;;;23.80;6.88;;;;;;;;;;5042037;28;20482;-68
2022/01/31 01:24:30;;;;;;;18.85;5.70;;;;;;;;;;5035137;28;20391;-67
2022/01/31 01:26:57;;;;;;;23.45;7.05;;;;;;;;;;5037311;28;20494;-68
2022/01/31 01:29:23;;;;;;;19.75;6.68;;;;;;;;;;5028954;28;20052;-68
2022/01/31 01:31:50;;;;;;;21.50;5.88;;;;;;;;;;5042192;28;20055;-68
2022/01/31 01:34:17;;;;;;;22.48;5.95;;;;;;;;;;5041409;28;20064;-68
2022/01/31 01:36:45;;;;;;;17.52;6.88;;;;;;;;;;5019591;28;20155;-68
2022/01/31 01:39:11;;;;;;;22.63;6.78;;;;;;;;;;5043624;28;20501;-67
2022/01/31 01:41:38;;;;;;;24.35;7.75;;;;;;;;;;5026781;28;20053;-67
2022/01/31 01:44:05;;;;;;;20.42;6.50;;;;;;;;;;5040579;28;20060;-67
2022/01/31 01:46:31;;;;;;;24.08;7.07;;;;;;;;;;5034484;28;20075;-68
2022/01/31 01:48:58;;;;;;;15.90;5.75;;;;;;;;;;5042401;28;20554;-68
2022/01/31 01:51:24;;;;;;;19.08;7.43;;;;;;;;;;5040274;28;20140;-68
2022/01/31 01:53:50;;;;;;;20.80;6.75;;;;;;;;;;5028770;28;20053;-67
2022/01/31 01:56:17;;;;;;;20.48;6.88;;;;;;;;;;5037120;28;20056;-68
2022/01/31 01:58:44;;;;;;;19.50;7.05;;;;;;;;;;5033493;28;20045;-69
2022/01/31 02:01:11;;;;;;;14.75;6.57;;;;;;;;;;5040779;28;20163;-69
2022/01/31 02:03:38;;;;;;;15.75;5.97;;;;;;;;;;5034366;28;20522;-68
2022/01/31 02:06:06;;;;;;;15.43;6.65;;;;;;;;;;5041537;28;20060;-69
2022/01/31 02:08:40;;;;;;;12.35;4.60;;;;;;;;;;5032932;28;20049;-69
2022/01/31 02:11:07;;;;;;;17.80;6.53;;;;;;;;;;5034554;28;20591;-69
2022/01/31 02:13:35;;;;;;;20.33;7.20;;;;;;;;;;5041745;28;20053;-69
2022/01/31 02:16:02;;;;;;;16.77;6.87;;;;;;;;;;5033386;28;20052;-69
2022/01/31 02:18:30;;;;;;;14.30;6.35;;;;;;;;;;5041787;28;20045;-69
2022/01/31 02:20:56;;;;;;;15.10;6.43;;;;;;;;;;5032259;28;20631;-69
2022/01/31 02:23:23;;;;;;;15.88;5.72;;;;;;;;;;5035228;28;20546;-69
2022/01/31 02:26:01;;;;;;;14.15;6.20;;;;;;;;;;5031767;28;20851;-69
2022/01/31 02:28:28;;;;;;;20.08;7.18;;;;;;;;;;5039977;28;20057;-68
2022/01/31 02:30:55;;;;;;;17.42;7.30;;;;;;;;;;5040615;28;20699;-68
2022/01/31 02:33:22;;;;;;;20.10;7.25;;;;;;;;;;5031505;28;20045;-68
2022/01/31 02:35:51;;;;;;;16.38;7.15;;;;;;;;;;5034519;28;20053;-68
2022/01/31 02:38:18;;;;;;;18.15;7.95;;;;;;;;;;5047087;28;20048;-68
2022/01/31 02:40:45;;;;;;;15.25;7.22;;;;;;;;;;5054579;28;20486;-68
2022/01/31 02:43:17;;;;;;;17.25;6.63;;;;;;;;;;5031741;28;20497;-68
2022/01/31 02:45:44;;;;;;;20.83;8.18;;;;;;;;;;5043090;28;20044;-68
2022/01/31 02:48:12;;;;;;;22.27;7.82;;;;;;;;;;5036287;28;20430;-68
2022/01/31 02:50:39;;;;;;;16.13;6.80;;;;;;;;;;5038696;28;20250;-68
2022/01/31 02:55:47;;;;;;;20.02;6.68;;;;;;;;;;5011787;28;20069;-68
2022/01/31 02:58:14;;;;;;;14.52;6.88;;;;;;;;;;5027672;28;20052;-68
2022/01/31 03:00:40;;;;;;;14.65;6.32;;;;;;;;;;5032109;28;20060;-68
2022/01/31 03:03:07;;;;;;;16.63;7.05;;;;;;;;;;5035257;28;20048;-68
2022/01/31 03:05:34;;;;;;;23.27;7.70;;;;;;;;;;5035558;28;20060;-68
2022/01/31 03:08:00;;;;;;;16.83;6.40;;;;;;;;;;5033398;28;20417;-68
2022/01/31 03:10:27;;;;;;;12.93;6.60;;;;;;;;;;5039236;28;20475;-68
2022/01/31 03:12:53;;;;;;;14.27;5.80;;;;;;;;;;5031575;28;20084;-68
2022/01/31 03:15:20;;;;;;;20.33;6.72;;;;;;;;;;5040886;28;20056;-68
2022/01/31 03:17:48;;;;;;;18.23;6.40;;;;;;;;;;5028216;28;20048;-68
2022/01/31 03:20:19;;;;;;;18.65;6.72;;;;;;;;;;5036503;28;20041;-68
2022/01/31 03:22:45;;;;;;;16.08;6.07;;;;;;;;;;5041335;28;20049;-69
2022/01/31 03:25:11;;;;;;;15.50;5.70;;;;;;;;;;5034028;28;20055;-68
2022/01/31 03:27:38;;;;;;;13.25;5.47;;;;;;;;;;5039803;28;20053;-68
2022/01/31 03:30:05;;;;;;;20.25;5.50;;;;;;;;;;5031014;28;20521;-68
2022/01/31 03:32:32;;;;;;;14.27;4.53;;;;;;;;;;5033634;28;20057;-68
2022/01/31 03:34:58;;;;;;;14.98;4.32;;;;;;;;;;5032691;28;20051;-68
2022/01/31 03:37:24;;;;;;;14.57;4.85;;;;;;;;;;5039482;28;20052;-68
2022/01/31 03:39:51;;;;;;;12.43;3.78;;;;;;;;;;5040672;28;20489;-68
2022/01/31 03:42:18;;;;;;;13.85;4.25;;;;;;;;;;5031748;28;20059;-68
2022/01/31 03:44:45;;;;;;;11.55;3.40;;;;;;;;;;5039699;28;20079;-68
2022/01/31 03:47:12;;;;;;;16.45;3.95;;;;;;;;;;5030422;28;20052;-68
2022/01/31 03:49:38;;;;;;;14.82;3.55;;;;;;;;;;5042480;28;20048;-67
2022/01/31 03:52:05;;;;;;;15.10;3.45;;;;;;;;;;5036995;28;20053;-68
2022/01/31 03:54:31;;;;;;;11.07;3.45;;;;;;;;;;5038996;28;20528;-68
2022/01/31 03:56:57;;;;;;;15.50;4.00;;;;;;;;;;5038763;28;20056;-68
2022/01/31 03:59:23;;;;;;;19.25;3.47;;;;;;;;;;5026662;28;20136;-68
2022/01/31 04:01:51;;;;;;;21.40;3.78;;;;;;;;;;5034038;28;20045;-67
2022/01/31 04:04:18;;;;;;;14.07;2.58;;;;;;;;;;5030460;28;20465;-68
2022/01/31 04:06:44;;;;;;;16.15;2.63;;;;;;;;;;5038642;28;20530;-67
2022/01/31 04:09:10;;;;;;;19.10;3.28;;;;;;;;;;5011457;28;20415;-67
2022/01/31 04:11:37;;;;;;;15.77;2.70;;;;;;;;;;5036591;28;20060;-67
2022/01/31 04:14:03;;;;;;;13.88;3.15;;;;;;;;;;5027411;28;20053;-68
2022/01/31 04:16:29;;;;;;;17.92;2.55;;;;;;;;;;5031282;28;20056;-68
2022/01/31 04:18:56;;;;;;;15.50;2.95;;;;;;;;;;5020696;28;20051;-67
2022/01/31 04:21:22;;;;;;;10.55;2.53;;;;;;;;;;5030110;28;20437;-67
2022/01/31 04:23:50;;;;;;;12.68;2.22;;;;;;;;;;5038722;28;20056;-67
2022/01/31 04:26:18;;;;;;;13.15;2.80;;;;;;;;;;5027874;28;20379;-67
2022/01/31 04:28:47;;;;;;;14.77;2.33;;;;;;;;;;5041652;28;20116;-67
2022/01/31 04:31:34;;;;;;;17.38;2.53;;;;;;;;;;5043246;28;20074;-67
2022/01/31 04:34:00;;;;;;;17.50;2.58;;;;;;;;;;5034081;28;20053;-67
2022/01/31 04:36:27;;;;;;;20.45;3.45;;;;;;;;;;5044600;28;20041;-67
2022/01/31 04:38:53;;;;;;;22.55;2.65;;;;;;;;;;5028391;28;20497;-67
2022/01/31 04:41:20;;;;;;;12.45;2.22;;;;;;;;;;5039807;28;20564;-67
2022/01/31 04:43:49;;;;;;;12.75;2.60;;;;;;;;;;5034297;28;20052;-68
2022/01/31 04:46:16;;;;;;;15.35;2.05;;;;;;;;;;5053136;28;20084;-68
2022/01/31 04:48:45;;;;;;;15.32;2.55;;;;;;;;;;5043073;28;20575;-67
2022/01/31 04:51:13;;;;;;;14.70;2.17;;;;;;;;;;5037129;28;20104;-68
2022/01/31 04:53:40;;;;;;;13.00;2.55;;;;;;;;;;5036458;28;20081;-68
2022/01/31 04:56:06;;;;;;;24.50;2.92;;;;;;;;;;5036872;28;20063;-68
2022/01/31 04:58:33;;;;;;;18.88;3.45;;;;;;;;;;5042263;28;20821;-68
2022/01/31 05:00:59;;;;;;;18.02;3.35;;;;;;;;;;5034727;28;20058;-68
2022/01/31 05:03:30;;;;;;;18.70;2.30;;;;;;;;;;5043569;28;20056;-68
2022/01/31 05:05:56;;;;;;;16.02;2.33;;;;;;;;;;5038514;28;20508;-68
2022/01/31 05:08:26;;;;;;;26.42;2.95;;;;;;;;;;5022342;28;20463;-68
2022/01/31 05:10:52;;;;;;;17.75;2.15;;;;;;;;;;5038875;28;20055;-68
2022/01/31 05:13:19;;;;;;;12.65;2.35;;;;;;;;;;5036339;28;20056;-68
2022/01/31 05:15:45;;;;;;;18.50;2.35;;;;;;;;;;5043031;28;20409;-68
2022/01/31 05:18:12;;;;;;;16.92;2.75;;;;;;;;;;5037032;28;20788;-68
2022/01/31 05:20:39;;;;;;;20.98;2.83;;;;;;;;;;5037269;28;20049;-68
2022/01/31 05:23:06;;;;;;;19.48;3.22;;;;;;;;;;5019899;28;20053;-68
2022/01/31 05:25:34;;;;;;;15.52;2.35;;;;;;;;;;5035172;28;20057;-68
2022/01/31 05:28:00;;;;;;;22.15;3.05;;;;;;;;;;5042223;28;20476;-68
2022/01/31 05:30:26;;;;;;;16.05;2.50;;;;;;;;;;5034156;28;20426;-68
2022/01/31 05:32:53;;;;;;;13.98;3.00;;;;;;;;;;5038123;28;20041;-69
2022/01/31 05:35:20;;;;;;;14.07;2.40;;;;;;;;;;5028527;28;20045;-68
2022/01/31 05:37:46;;;;;;;10.25;1.92;;;;;;;;;;5041619;28;20074;-68
2022/01/31 05:40:12;;;;;;;17.10;2.88;;;;;;;;;;5023130;28;20131;-68
2022/01/31 05:42:39;;;;;;;18.60;2.70;;;;;;;;;;5014319;28;20045;-68
2022/01/31 05:45:09;;;;;;;18.63;2.95;;;;;;;;;;5040706;28;20057;-68
2022/01/31 05:47:35;;;;;;;14.43;2.22;;;;;;;;;;5027154;28;20462;-68
2022/01/31 05:50:03;;;;;;;16.08;2.13;;;;;;;;;;5037634;28;20572;-68
2022/01/31 05:52:29;;;;;;;7.90;1.50;;;;;;;;;;5032878;28;20077;-69
2022/01/31 05:54:56;;;;;;;12.05;1.38;;;;;;;;;;5022881;28;20349;-69
2022/01/31 05:57:22;;;;;;;5.65;1.00;;;;;;;;;;5041425;28;20048;-68
2022/01/31 05:59:50;;;;;;;8.32;1.60;;;;;;;;;;5030651;28;20083;-68
2022/01/31 06:02:17;;;;;;;11.07;1.63;;;;;;;;;;5023373;28;20541;-68
2022/01/31 06:04:44;;;;;;;8.63;1.38;;;;;;;;;;5015281;28;20451;-69
2022/01/31 06:07:10;;;;;;;10.85;1.42;;;;;;;;;;5027432;28;20051;-69
2022/01/31 06:09:38;;;;;;;9.80;1.50;;;;;;;;;;5017899;28;20597;-69
2022/01/31 06:12:05;;;;;;;9.23;1.67;;;;;;;;;;5019437;28;20554;-68
2022/01/31 06:14:31;;;;;;;7.50;1.40;;;;;;;;;;5034654;28;20410;-69
2022/01/31 06:16:58;;;;;;;11.82;2.05;;;;;;;;;;5032569;28;20550;-69
2022/01/31 06:19:24;;;;;;;19.75;1.92;;;;;;;;;;5041419;28;20068;-69
2022/01/31 06:21:50;;;;;;;9.30;1.25;;;;;;;;;;5022983;28;20328;-69
2022/01/31 06:24:17;;;;;;;10.73;2.00;;;;;;;;;;5023414;28;20407;-68
2022/01/31 06:26:43;;;;;;;9.27;1.85;;;;;;;;;;5008947;28;20049;-69
2022/01/31 06:29:09;;;;;;;17.10;2.30;;;;;;;;;;5024319;28;20047;-69
2022/01/31 06:31:36;;;;;;;16.40;2.40;;;;;;;;;;5031166;28;20049;-69
2022/01/31 06:34:02;;;;;;;13.30;1.70;;;;;;;;;;5025601;28;20056;-69
2022/01/31 06:36:29;;;;;;;20.90;2.33;;;;;;;;;;5040236;28;20045;-69
2022/01/31 06:38:55;;;;;;;13.57;2.30;;;;;;;;;;5026672;28;20449;-69
2022/01/31 06:41:23;;;;;;;11.07;1.83;;;;;;;;;;5037010;28;20045;-69
2022/01/31 06:43:50;;;;;;;17.77;2.33;;;;;;;;;;5020618;28;20549;-68
2022/01/31 06:46:17;;;;;;;15.80;2.60;;;;;;;;;;5026981;28;20296;-69
2022/01/31 06:48:44;;;;;;;23.17;3.83;;;;;;;;;;5022442;28;20489;-69
2022/01/31 06:51:10;;;;;;;17.30;2.65;;;;;;;;;;5017945;28;20854;-68
2022/01/31 06:53:36;;;;;;;10.68;2.08;;;;;;;;;;5017343;28;20104;-69
2022/01/31 06:56:03;;;;;;;20.38;2.70;;;;;;;;;;5018692;28;20049;-69
2022/01/31 06:58:29;;;;;;;18.55;3.17;;;;;;;;;;5025735;28;20425;-69
2022/01/31 07:00:57;;;;;;;18.77;2.72;;;;;;;;;;5028710;28;20391;-69
2022/01/31 07:03:24;;;;;;;13.57;1.83;;;;;;;;;;5038553;28;20110;-68
2022/01/31 07:05:50;;;;;;;19.02;2.45;;;;;;;;;;5034591;28;20171;-68
2022/01/31 07:08:17;;;;;;;19.15;2.78;;;;;;;;;;5006318;28;20050;-69
2022/01/31 07:10:50;;;;;;;20.02;2.85;;;;;;;;;;5017167;28;20148;-68
2022/01/31 07:13:35;;;;;;;24.88;3.65;;;;;;;;;;5011843;28;20049;-68
2022/01/31 07:16:02;;;;;;;12.85;2.20;;;;;;;;;;5031133;28;20045;-69
2022/01/31 07:18:29;;;;;;;9.02;1.83;;;;;;;;;;5029181;28;20068;-69
2022/01/31 07:20:56;;;;;;;18.00;2.17;;;;;;;;;;5031592;28;20084;-68
2022/01/31 07:23:28;;;;;;;14.40;1.90;;;;;;;;;;5018904;28;20052;-69
2022/01/31 07:25:55;;;;;;;15.10;1.88;;;;;;;;;;5011656;28;20053;-69
2022/01/31 07:28:22;;;;;;;8.48;1.50;;;;;;;;;;5039233;28;20064;-68
2022/01/31 07:30:49;;;;;;;20.23;2.28;;;;;;;;;;5030524;28;20053;-69
2022/01/31 07:33:18;;;;;;;14.20;2.55;;;;;;;;;;5034057;28;20053;-69
2022/01/31 07:35:46;;;;;;;15.82;1.90;;;;;;;;;;5025949;28;20044;-68
2022/01/31 07:38:13;;;;;;;16.15;2.00;;;;;;;;;;5037931;28;20049;-68
2022/01/31 07:40:39;;;;;;;17.52;3.10;;;;;;;;;;5038820;28;20356;-68
2022/01/31 07:43:08;;;;;;;10.90;1.70;;;;;;;;;;5030527;28;20049;-68
2022/01/31 07:45:35;;;;;;;13.75;2.00;;;;;;;;;;5047656;28;20417;-68
2022/01/31 07:48:01;;;;;;;12.10;1.73;;;;;;;;;;5005365;28;20498;-69
2022/01/31 07:50:31;;;;;;;16.88;2.17;;;;;;;;;;5038591;28;20453;-69
2022/01/31 07:52:57;;;;;;;10.65;1.98;;;;;;;;;;5026948;28;20140;-69
2022/01/31 07:55:24;;;;;;;14.05;2.33;;;;;;;;;;5027166;28;20060;-69
2022/01/31 07:57:50;;;;;;;16.40;2.00;;;;;;;;;;5043247;28;20049;-69
2022/01/31 08:00:17;;;;;;;17.35;1.88;;;;;;;;;;5027525;28;20098;-69
2022/01/31 08:02:43;;;;;;;20.73;2.17;;;;;;;;;;5027259;28;20427;-69
2022/01/31 08:05:10;;;;;;;17.95;2.20;;;;;;;;;;5027252;28;20057;-69
2022/01/31 08:07:36;;;;;;;18.98;2.35;;;;;;;;;;5038581;28;20056;-69
2022/01/31 08:10:04;;;;;;;15.70;2.28;;;;;;;;;;5032070;28;20056;-69
2022/01/31 08:12:32;;;;;;;17.10;2.00;;;;;;;;;;5043534;28;20570;-69
2022/01/31 08:15:03;;;;;;;22.00;2.78;;;;;;;;;;5038556;28;20056;-69
2022/01/31 08:17:30;;;;;;;16.27;2.53;;;;;;;;;;5023823;28;20049;-69
2022/01/31 08:19:56;;;;;;;22.52;3.40;;;;;;;;;;5027975;28;20056;-70
2022/01/31 08:22:22;;;;;;;16.17;2.30;;;;;;;;;;5022336;28;20049;-69
2022/01/31 08:24:49;;;;;;;21.48;2.47;;;;;;;;;;5041902;28;20464;-69
2022/01/31 08:27:15;;;;;;;18.65;3.35;;;;;;;;;;5034061;28;20573;-70
2022/01/31 08:29:41;;;;;;;21.52;2.75;;;;;;;;;;5036018;28;20052;-70
2022/01/31 08:32:16;;;;;;;16.27;2.45;;;;;;;;;;5040039;28;20041;-70
2022/01/31 08:37:28;;;;;;;22.42;2.92;;;;;;;;;;5043069;28;20442;-70
2022/01/31 08:39:54;;;;;;;20.08;2.45;;;;;;;;;;5034116;28;20055;-69
2022/01/31 08:42:20;;;;;;;19.80;2.72;;;;;;;;;;5037322;28;20205;-69
2022/01/31 08:44:47;;;;;;;21.48;2.70;;;;;;;;;;5027262;28;20052;-69
2022/01/31 08:47:14;;;;;;;16.60;2.17;;;;;;;;;;5051145;28;20045;-69
2022/01/31 08:49:40;;;;;;;15.52;2.35;;;;;;;;;;5016787;28;20100;-69
2022/01/31 08:52:07;;;;;;;18.63;3.30;;;;;;;;;;5029222;28;20148;-69
2022/01/31 08:54:34;;;;;;;17.83;2.40;;;;;;;;;;5038491;28;20053;-69
2022/01/31 08:57:00;;;;;;;18.05;2.35;;;;;;;;;;5037457;28;20155;-69
2022/01/31 08:59:28;;;;;;;14.30;2.63;;;;;;;;;;5038033;28;20056;-70
2022/01/31 09:02:04;;;;;;;19.08;3.00;;;;;;;;;;5032920;28;20052;-69
2022/01/31 09:04:34;;;;;;;16.63;2.60;;;;;;;;;;5038371;28;20181;-69
2022/01/31 09:07:02;;;;;;;17.67;2.25;;;;;;;;;;5035690;28;20061;-70
2022/01/31 09:09:30;;;;;;;25.33;2.83;;;;;;;;;;5039676;28;20059;-70
2022/01/31 09:12:03;;;;;;;18.88;2.60;;;;;;;;;;5035551;28;20048;-70
2022/01/31 09:14:29;;;;;;;19.20;2.50;;;;;;;;;;5032625;28;20056;-69
2022/01/31 09:16:56;;;;;;;27.02;4.00;;;;;;;;;;5042401;28;20115;-69
2022/01/31 09:19:22;;;;;;;17.92;2.38;;;;;;;;;;5035228;28;20080;-70
2022/01/31 09:21:49;;;;;;;19.05;3.38;;;;;;;;;;5039103;28;20068;-70
2022/01/31 09:24:15;;;;;;;27.08;3.42;;;;;;;;;;5034082;28;20072;-70
2022/01/31 09:26:41;;;;;;;21.60;3.35;;;;;;;;;;5024777;28;20350;-70
2022/01/31 09:29:08;;;;;;;20.40;2.75;;;;;;;;;;5047808;28;20048;-70
2022/01/31 09:31:34;;;;;;;20.85;3.97;;;;;;;;;;5052203;28;20055;-70
2022/01/31 09:34:01;;;;;;;20.48;2.97;;;;;;;;;;5060828;28;20940;-70
2022/01/31 09:36:27;;;;;;;24.20;3.20;;;;;;;;;;5053150;28;20064;-70
2022/01/31 09:38:54;;;;;;;31.85;3.75;;;;;;;;;;5056153;28;20813;-70
2022/01/31 09:41:25;;;;;;;20.25;2.97;;;;;;;;;;5050075;28;20054;-70
2022/01/31 09:44:06;;;;;;;24.35;3.03;;;;;;;;;;5051853;28;20355;-69
2022/01/31 09:49:19;;;;;;;37.45;3.65;;;;;;;;;;5042164;28;20053;-70
2022/01/31 09:51:46;;;;;;;32.17;3.75;;;;;;;;;;5035982;28;20067;-69
2022/01/31 09:54:12;;;;;;;31.75;3.75;;;;;;;;;;5039690;28;20045;-70
2022/01/31 09:56:41;;;;;;;26.88;3.65;;;;;;;;;;5054052;28;20046;-70
2022/01/31 09:59:09;;;;;;;30.10;3.83;;;;;;;;;;5052736;28;20044;-69
2022/01/31 10:01:52;;;;;;;26.02;3.28;;;;;;;;;;5060801;28;20262;-69
2022/01/31 10:04:20;;;;;;;21.67;3.33;;;;;;;;;;5060777;28;20107;-69
2022/01/31 10:06:50;;;;;;;25.30;3.90;;;;;;;;;;5041538;28;20045;-70
2022/01/31 10:09:19;;;;;;;30.55;4.93;;;;;;;;;;5053332;28;20059;-70
2022/01/31 10:11:50;;;;;;;22.13;3.78;;;;;;;;;;5033026;28;20446;-69
2022/01/31 10:17:03;;;;;;;30.40;3.83;;;;;;;;;;5042802;28;20048;-70
2022/01/31 10:19:47;;;;;;;42.25;4.50;;;;;;;;;;5052407;28;20063;-70
2022/01/31 10:22:15;;;;;;;37.55;4.93;;;;;;;;;;5034910;28;20075;-70
2022/01/31 10:24:45;;;;;;;25.13;3.80;;;;;;;;;;5041216;28;20466;-69
2022/01/31 10:27:13;;;;;;;31.63;4.55;;;;;;;;;;5043806;28;20060;-70
2022/01/31 10:29:40;;;;;;;42.28;5.38;;;;;;;;;;5049812;28;20048;-70
2022/01/31 10:32:08;;;;;;;37.88;5.53;;;;;;;;;;5054045;28;20040;-70
2022/01/31 10:34:37;;;;;;;32.25;5.28;;;;;;;;;;5041243;28;20051;-69
2022/01/31 10:37:04;;;;;;;36.05;4.60;;;;;;;;;;5055783;28;20325;-70
2022/01/31 10:54:17;;;;;;;33.95;5.10;;;;;;;;;;5054257;28;20084;-69
2022/01/31 10:56:47;;;;;;;32.22;4.75;;;;;;;;;;5071903;28;20465;-70
2022/01/31 10:59:15;;;;;;;38.75;5.63;;;;;;;;;;5080601;28;20374;-70
2022/01/31 11:01:45;;;;;;;30.10;4.40;;;;;;;;;;5042541;28;20048;-70
2022/01/31 11:04:47;;;;;;;25.58;3.58;;;;;;;;;;5058548;28;20083;-70
2022/01/31 11:07:21;;;;;;;31.70;3.80;;;;;;;;;;5059331;28;20064;-70
2022/01/31 11:09:49;;;;;;;32.40;4.72;;;;;;;;;;5050197;28;20064;-71
2022/01/31 11:12:22;;;;;;;26.08;3.92;;;;;;;;;;5060337;28;20048;-70
2022/01/31 11:14:48;;;;;;;32.10;3.83;;;;;;;;;;5049666;28;20140;-70
2022/01/31 11:17:16;;;;;;;29.40;3.65;;;;;;;;;;5051169;28;20311;-70
2022/01/31 11:19:44;;;;;;;26.77;3.92;;;;;;;;;;5044083;28;20056;-70
2022/01/31 11:22:11;;;;;;;18.65;2.50;;;;;;;;;;5059524;28;20057;-70
2022/01/31 11:25:05;;;;;;;27.25;3.25;;;;;;;;;;5053495;28;20056;-70
2022/01/31 11:27:32;;;;;;;14.57;2.90;;;;;;;;;;5055704;28;20059;-70
2022/01/31 11:30:00;;;;;;;24.25;3.05;;;;;;;;;;5034043;28;20049;-71
2022/01/31 11:32:26;;;;;;;19.65;3.25;;;;;;;;;;5052187;28;20040;-70
2022/01/31 11:34:54;;;;;;;21.17;2.80;;;;;;;;;;5059262;28;20544;-70
2022/01/31 11:37:21;;;;;;;22.42;3.47;;;;;;;;;;5050317;28;20501;-70
2022/01/31 11:39:51;;;;;;;23.08;3.33;;;;;;;;;;5059115;28;20488;-71
2022/01/31 11:42:20;;;;;;;22.48;3.05;;;;;;;;;;5043577;28;20693;-70
2022/01/31 11:44:52;;;;;;;15.65;2.80;;;;;;;;;;5053428;28;20112;-70
2022/01/31 11:47:22;;;;;;;15.25;2.30;;;;;;;;;;5050739;28;20041;-70
2022/01/31 11:49:50;;;;;;;15.80;2.97;;;;;;;;;;5063533;28;20137;-70
2022/01/31 11:52:17;;;;;;;17.90;3.00;;;;;;;;;;5066339;28;20217;-70
2022/01/31 11:54:55;;;;;;;27.55;4.28;;;;;;;;;;5044478;28;20055;-71
2022/01/31 11:57:22;;;;;;;23.10;2.77;;;;;;;;;;5053851;28;20041;-70
2022/01/31 11:59:54;;;;;;;22.65;3.78;;;;;;;;;;5045691;28;20143;-70
2022/01/31 12:02:21;;;;;;;23.88;2.97;;;;;;;;;;5055240;28;20049;-70
2022/01/31 12:04:49;;;;;;;22.80;2.70;;;;;;;;;;5055725;28;20055;-70
2022/01/31 12:07:29;;;;;;;21.45;2.50;;;;;;;;;;5052585;28;20059;-70
2022/01/31 12:09:57;;;;;;;17.83;2.90;;;;;;;;;;5035718;28;20183;-70
2022/01/31 12:12:25;;;;;;;;;;;;;;;;;;5045648;28;20439;-69
2022/01/31 12:15:04;;;;;;;28.42;3.95;;;;;;;;;;5059541;28;19928;-70
2022/01/31 12:18:00;;;;;;;25.42;3.63;;;;;;;;;;5053270;28;20056;-69
2022/01/31 12:21:59;;;;;;;25.88;3.72;;;;;;;;;;5059297;28;20056;-69
2022/01/31 12:23:33;;;;;;;24.10;3.53;;;;;;;;;;5051425;28;20147;-70
2022/01/31 12:25:59;;;;;;;31.48;4.30;;;;;;;;;;5051935;28;20055;-69
2022/01/31 12:28:40;;;;;;;22.00;4.03;;;;;;;;;;5051973;28;20056;-70
2022/01/31 12:31:22;;;;;;;24.70;3.63;;;;;;;;;;5060361;28;20742;-69
2022/01/31 12:33:49;;;;;;;27.27;3.65;;;;;;;;;;5052796;28;20048;-70
2022/01/31 12:36:34;;;;;;;27.38;3.30;;;;;;;;;;5058193;28;20045;-69
2022/01/31 12:39:01;;;;;;;26.15;3.58;;;;;;;;;;5054627;28;20055;-69
2022/01/31 12:41:31;;;;;;;23.27;3.50;;;;;;;;;;5046029;28;20041;-69
2022/01/31 12:44:16;;;;;;;26.83;3.30;;;;;;;;;;5058587;28;20421;-69
2022/01/31 12:46:50;;;;;;;29.25;4.63;;;;;;;;;;5051813;28;20575;-69
2022/01/31 12:49:17;;;;;;;25.45;4.45;;;;;;;;;;5071173;28;20584;-69
2022/01/31 12:51:56;;;;;;;19.17;2.90;;;;;;;;;;5055556;28;20052;-69
2022/01/31 12:54:23;;;;;;;23.00;3.20;;;;;;;;;;5055645;28;20048;-69
2022/01/31 12:56:51;;;;;;;21.30;3.63;;;;;;;;;;5054386;28;20048;-69
2022/01/31 12:59:17;;;;;;;20.52;3.45;;;;;;;;;;5062488;28;20048;-69
2022/01/31 13:01:46;;;;;;;27.52;3.05;;;;;;;;;;5061501;28;20051;-69
2022/01/31 13:04:23;;;;;;;22.10;2.72;;;;;;;;;;5052980;28;20064;-69
2022/01/31 13:06:50;;;;;;;20.45;3.13;;;;;;;;;;5057529;28;20095;-70
2022/01/31 13:09:24;;;;;;;27.87;3.43;;;;;;;;;;5047310;28;20139;-69
2022/01/31 13:11:50;;;;;;;20.60;3.08;;;;;;;;;;5060110;28;20586;-69
2022/01/31 13:14:19;;;;;;;24.70;3.33;;;;;;;;;;5035676;28;20048;-69
2022/01/31 13:17:11;;;;;;;;;;;;;;;;;;5051895;28;20086;-69
2022/01/31 13:19:39;;;;;;;19.60;2.78;;;;;;;;;;5054062;28;19934;-69
2022/01/31 13:22:11;;;;;;;19.77;3.17;;;;;;;;;;5031395;28;20055;-69
2022/01/31 13:24:40;;;;;;;20.75;3.30;;;;;;;;;;5061380;28;20048;-69
2022/01/31 13:27:08;;;;;;;23.23;3.55;;;;;;;;;;5053179;28;20609;-69
2022/01/31 13:29:55;;;;;;;35.63;3.40;;;;;;;;;;5061438;28;20057;-70
2022/01/31 13:32:30;;;;;;;22.40;3.33;;;;;;;;;;5053143;28;20049;-69
2022/01/31 13:35:13;;;;;;;24.35;4.45;;;;;;;;;;5055578;28;20060;-70
2022/01/31 13:37:46;;;;;;;31.88;4.15;;;;;;;;;;5048154;28;20052;-70
2022/01/31 13:40:14;;;;;;;25.45;3.70;;;;;;;;;;5057940;28;20503;-69
2022/01/31 13:42:43;;;;;;;24.05;3.00;;;;;;;;;;5053317;28;20056;-70
2022/01/31 13:45:16;;;;;;;27.45;3.83;;;;;;;;;;5061829;28;20048;-69
2022/01/31 13:47:49;;;;;;;28.25;4.40;;;;;;;;;;5056243;28;20056;-70
2022/01/31 13:50:17;;;;;;;25.80;3.47;;;;;;;;;;5066644;28;20535;-69
2022/01/31 13:52:49;;;;;;;25.08;2.95;;;;;;;;;;5080996;28;20059;-69
2022/01/31 13:55:16;;;;;;;29.85;4.18;;;;;;;;;;5054197;28;20048;-69
2022/01/31 13:57:43;;;;;;;30.17;4.10;;;;;;;;;;5060113;28;20516;-70
2022/01/31 14:00:09;;;;;;;26.58;4.03;;;;;;;;;;5053644;28;20369;-70
2022/01/31 14:02:38;;;;;;;27.13;4.45;;;;;;;;;;5057342;28;20483;-69
2022/01/31 14:05:18;;;;;;;33.65;4.40;;;;;;;;;;5048636;28;20505;-70
2022/01/31 14:07:45;;;;;;;28.73;4.30;;;;;;;;;;5061597;28;20144;-69
2022/01/31 14:10:24;;;;;;;34.35;3.75;;;;;;;;;;5059742;28;20048;-70
2022/01/31 14:13:01;;;;;;;36.38;3.95;;;;;;;;;;5052600;28;20140;-69
2022/01/31 14:15:27;;;;;;;28.08;3.97;;;;;;;;;;5060936;28;20052;-69
2022/01/31 14:17:55;;;;;;;33.45;5.15;;;;;;;;;;5045075;28;20139;-69
2022/01/31 14:20:24;;;;;;;32.28;4.32;;;;;;;;;;5058787;28;20075;-69
2022/01/31 14:22:55;;;;;;;30.83;4.32;;;;;;;;;;5052571;28;20546;-69
2022/01/31 14:25:21;;;;;;;38.55;4.97;;;;;;;;;;5061389;28;20052;-70
2022/01/31 14:27:48;;;;;;;38.92;4.22;;;;;;;;;;5052300;28;20055;-69
2022/01/31 14:30:18;;;;;;;23.00;3.75;;;;;;;;;;5057304;28;20063;-69
2022/01/31 14:32:54;;;;;;;34.90;4.80;;;;;;;;;;5055938;28;20154;-69
2022/01/31 14:35:21;;;;;;;20.98;3.08;;;;;;;;;;5052369;28;20051;-69
2022/01/31 14:37:52;;;;;;;23.58;3.35;;;;;;;;;;5060631;28;20053;-69
2022/01/31 14:40:39;;;;;;;19.40;3.10;;;;;;;;;;5051659;28;20067;-69
2022/01/31 14:43:16;;;;;;;26.52;3.40;;;;;;;;;;5060517;28;20405;-69
2022/01/31 14:48:31;;;;;;;18.52;2.13;;;;;;;;;;5059853;28;20068;-69
2022/01/31 14:50:58;;;;;;;15.50;4.13;;;;;;;;;;5068934;28;20477;-69
2022/01/31 14:53:24;;;;;;;17.38;2.72;;;;;;;;;;5081150;28;20052;-69
2022/01/31 14:55:51;;;;;;;17.98;2.60;;;;;;;;;;5080403;28;20113;-69
2022/01/31 14:58:19;;;;;;;14.32;1.95;;;;;;;;;;5067712;28;20056;-69
2022/01/31 15:00:45;;;;;;;16.70;2.10;;;;;;;;;;5076157;28;20052;-69
2022/01/31 15:03:12;;;;;;;17.45;2.30;;;;;;;;;;5071741;28;20507;-69
2022/01/31 15:05:38;;;;;;;11.63;1.92;;;;;;;;;;5080623;28;20078;-69
2022/01/31 15:08:05;;;;;;;15.45;1.88;;;;;;;;;;5072130;28;20448;-69